Huvudsida
METAR-TAF:

METAR-TAF

Flygplatser :

Førde flygplats. Bringeland

Førde, Norge

latitud: 61-27N, longitud: 005-52E, höjd: 150 m

Aktuellt väderrapport

Denna rapport gjordes för 43 minuter sedan, klockan 12:20 UTC
Vind 7 kt från sydväst, varierande mellan sydost och nordväst
Temperatur 3°C
Fuktighet 93%
Tryck 1014 hPa
Sikt 10 km eller mer
Få moln på en höjd av 300 ft
Få moln på en höjd av 1400 ft, Högtornande cumulus.
Spridda moln på en höjd av 1400 ft
Brutna moln på en höjd av 2900 ft
regnskurar

METAR: ENBL 221220Z 22007KT 140V320 9999 SHRA FEW003 FEW014TCU SCT014 BKN029 03/02 Q1014

Tid: 15:03 (13:03 UTC)


TAF: saknas

Aktuella väderrapporter och prognoser från 4000 flygplatser (METAR- och TAF-rapporter).

De tillgängliga stationerna syns som gula och röda prickar på kartan.

För musen över prickarna för att se namnen på stationerna.

Klicka sedan för att få väderrapporter och prognoser.

För att ändra kartan: Klicka på de gröna knapparna med ett svart kors på för att zooma in; den gröna knappen med ett streck på för att zooma ut; eller på de gröna pilarna för angränsande kartor.


METAR-TAF: